Time;durP1;ratioP1;P1;durP2;ratioP2;P2;SDS_P1;SDS_P2;PMS_P1;PMS_P2;Temp;Humidity;BMP_temperature;BMP_pressure;BME280_temperature;BME280_humidity;BME280_pressure;Samples;Min_cycle;Max_cycle;Signal;HPM_P1;HPM_P2
2021/04/27 00:00:02;;;;;;;1.20;1.10;;;26.30;45.10;;;;;;4975231;28;20554;-84
2021/04/27 00:02:28;;;;;;;1.10;1.00;;;26.20;45.00;;;;;;4975287;28;20453;-84
2021/04/27 00:04:54;;;;;;;1.23;1.07;;;26.20;45.00;;;;;;4975479;28;20466;-85
2021/04/27 00:07:21;;;;;;;1.50;1.00;;;26.20;45.00;;;;;;4975436;28;20450;-85
2021/04/27 00:09:48;;;;;;;1.10;1.00;;;26.20;45.00;;;;;;4975423;28;20445;-84
2021/04/27 00:12:14;;;;;;;1.20;1.00;;;26.10;45.00;;;;;;4975249;28;20497;-85
2021/04/27 00:14:41;;;;;;;1.20;0.90;;;26.30;45.10;;;;;;4975024;28;20492;-84
2021/04/27 00:17:07;;;;;;;1.27;1.17;;;26.10;45.00;;;;;;4975534;28;20444;-84
2021/04/27 00:19:33;;;;;;;1.20;1.00;;;26.10;45.00;;;;;;4974888;28;20457;-84
2021/04/27 00:22:00;;;;;;;1.57;1.27;;;26.30;45.10;;;;;;4975234;28;20790;-84
2021/04/27 00:24:30;;;;;;;3.93;1.10;;;26.10;45.00;;;;;;4974912;28;20438;-84
2021/04/27 00:26:57;;;;;;;1.10;0.93;;;26.10;45.00;;;;;;4975075;28;20527;-84
2021/04/27 00:29:23;;;;;;;1.00;0.83;;;26.10;45.00;;;;;;4975103;28;20926;-85
2021/04/27 00:31:49;;;;;;;1.10;1.00;;;26.10;45.00;;;;;;4975017;28;20457;-84
2021/04/27 00:34:16;;;;;;;1.20;1.00;;;26.10;45.00;;;;;;4974743;28;20493;-85
2021/04/27 00:36:42;;;;;;;1.67;1.20;;;26.00;45.00;;;;;;4974872;28;20859;-84
2021/04/27 00:39:08;;;;;;;1.30;1.00;;;26.00;45.60;;;;;;4975024;28;20782;-84
2021/04/27 00:41:35;;;;;;;1.10;1.00;;;26.00;44.90;;;;;;4974650;28;20445;-85
2021/04/27 00:44:02;;;;;;;1.20;1.10;;;26.00;44.90;;;;;;4974813;28;20507;-85
2021/04/27 00:46:28;;;;;;;1.10;1.00;;;26.00;45.00;;;;;;4974472;28;20433;-84
2021/04/27 00:48:54;;;;;;;1.10;1.00;;;26.10;45.00;;;;;;4974636;28;20441;-85
2021/04/27 00:51:21;;;;;;;1.13;0.80;;;26.20;45.10;;;;;;4974618;28;20492;-85
2021/04/27 00:53:48;;;;;;;1.10;0.90;;;26.00;45.00;;;;;;4974621;28;20480;-84
2021/04/27 00:56:15;;;;;;;1.23;1.13;;;26.00;45.00;;;;;;4974657;28;20442;-84
2021/04/27 00:58:42;;;;;;;1.07;0.83;;;26.00;45.00;;;;;;4974575;28;20463;-84
2021/04/27 01:01:11;;;;;;;1.10;1.00;;;26.00;45.00;;;;;;4974599;28;20477;-83
2021/04/27 01:03:37;;;;;;;1.30;1.10;;;26.00;45.00;;;;;;4974671;28;20951;-84
2021/04/27 01:06:04;;;;;;;1.40;1.30;;;26.00;45.00;;;;;;4974821;28;20445;-84
2021/04/27 01:08:37;;;;;;;1.17;1.07;;;26.00;45.00;;;;;;4978924;28;20500;-84
2021/04/27 01:11:11;;;;;;;1.30;1.20;;;26.00;45.00;;;;;;4978560;28;20452;-84
2021/04/27 01:13:43;;;;;;;1.53;1.20;;;26.10;45.10;;;;;;4978549;28;20460;-84
2021/04/27 01:16:11;;;;;;;1.00;0.80;;;26.10;45.10;;;;;;4978599;28;20496;-85
2021/04/27 01:18:41;;;;;;;1.20;1.00;;;25.90;45.00;;;;;;4978267;28;20533;-84
2021/04/27 01:21:08;;;;;;;1.10;1.00;;;25.90;45.00;;;;;;4978489;28;20457;-84
2021/04/27 01:23:57;;;;;;;1.27;1.00;;;25.90;45.00;;;;;;4977966;28;20448;-84
2021/04/27 01:26:33;;;;;;;1.20;1.00;;;25.90;44.90;;;;;;4978478;28;20440;-85
2021/04/27 01:29:01;;;;;;;1.10;0.90;;;25.90;45.00;;;;;;4978015;28;20499;-84
2021/04/27 01:31:28;;;;;;;1.20;1.00;;;25.90;45.20;;;;;;4978056;28;20445;-85
2021/04/27 01:33:55;;;;;;;1.10;0.97;;;25.80;45.10;;;;;;4977989;28;20841;-84
2021/04/27 01:36:22;;;;;;;2.03;1.00;;;25.90;45.10;;;;;;4977859;28;21014;-85
2021/04/27 01:38:49;;;;;;;1.10;1.00;;;25.90;45.10;;;;;;4977959;28;21085;-85
2021/04/27 01:41:16;;;;;;;1.20;1.03;;;25.90;45.00;;;;;;4977940;28;20443;-84
2021/04/27 01:43:43;;;;;;;1.10;1.00;;;25.90;45.10;;;;;;4977665;28;20470;-86
2021/04/27 01:46:10;;;;;;;1.03;0.93;;;25.90;45.10;;;;;;4977752;28;20441;-84
2021/04/27 01:48:38;;;;;;;1.23;1.10;;;25.90;45.00;;;;;;4977701;28;20448;-84
2021/04/27 01:51:08;;;;;;;1.27;1.13;;;25.80;45.00;;;;;;4977825;28;20445;-84
2021/04/27 01:53:35;;;;;;;1.20;1.00;;;25.80;45.00;;;;;;4977620;28;20441;-84
2021/04/27 01:56:02;;;;;;;1.00;0.90;;;25.80;45.00;;;;;;4977596;28;20464;-84
2021/04/27 01:58:28;;;;;;;1.10;0.90;;;25.90;45.10;;;;;;4977580;28;20472;-85
2021/04/27 02:00:55;;;;;;;1.23;1.10;;;25.80;45.00;;;;;;4977372;28;20473;-85
2021/04/27 02:03:22;;;;;;;1.13;1.00;;;25.90;45.00;;;;;;4977772;28;20452;-84
2021/04/27 02:05:48;;;;;;;1.10;1.00;;;25.80;45.00;;;;;;4977556;28;20441;-85
2021/04/27 02:08:14;;;;;;;1.00;0.90;;;25.80;45.00;;;;;;4977549;28;20476;-84
2021/04/27 02:10:41;;;;;;;1.23;1.13;;;25.80;45.00;;;;;;4977587;28;20445;-84
2021/04/27 02:13:10;;;;;;;1.10;1.00;;;25.80;45.60;;;;;;4977478;28;20472;-84
2021/04/27 02:15:37;;;;;;;1.20;1.00;;;26.00;45.00;;;;;;4977275;28;20488;-84
2021/04/27 02:18:12;;;;;;;1.00;0.80;;;25.80;45.00;;;;;;4977042;28;20441;-84
2021/04/27 02:20:39;;;;;;;1.00;0.80;;;25.80;45.00;;;;;;4977308;28;20445;-84
2021/04/27 02:23:06;;;;;;;1.30;1.20;;;25.80;45.10;;;;;;4977178;28;20449;-84
2021/04/27 02:25:32;;;;;;;1.00;0.80;;;25.80;45.10;;;;;;4976923;28;20453;-83
2021/04/27 02:27:59;;;;;;;1.57;0.90;;;25.80;45.10;;;;;;4977519;28;20446;-84
2021/04/27 02:30:27;;;;;;;2.13;1.00;;;25.80;45.10;;;;;;4977192;28;20967;-83
2021/04/27 02:32:54;;;;;;;1.23;1.00;;;25.80;45.10;;;;;;4976953;28;20452;-84
2021/04/27 02:35:23;;;;;;;1.20;1.00;;;26.00;45.20;;;;;;4976805;28;20497;-85
2021/04/27 02:37:51;;;;;;;1.20;1.00;;;25.80;45.00;;;;;;4976938;28;20441;-85
2021/04/27 02:40:22;;;;;;;1.10;0.87;;;25.80;45.60;;;;;;4976921;28;20448;-84
2021/04/27 02:42:51;;;;;;;1.20;0.90;;;25.80;45.00;;;;;;4976717;28;20466;-84
2021/04/27 02:45:17;;;;;;;1.00;0.80;;;25.80;45.00;;;;;;4976654;28;20433;-85
2021/04/27 02:47:44;;;;;;;1.10;1.00;;;25.90;45.00;;;;;;4976770;28;20936;-84
2021/04/27 02:50:12;;;;;;;1.20;1.10;;;25.90;45.00;;;;;;4976582;28;20451;-84
2021/04/27 02:52:40;;;;;;;1.07;0.93;;;25.90;45.00;;;;;;4976769;28;20439;-84
2021/04/27 02:55:08;;;;;;;1.10;1.00;;;25.90;45.00;;;;;;4976685;28;20489;-83
2021/04/27 02:57:34;;;;;;;1.20;0.90;;;25.90;44.90;;;;;;4976590;28;20447;-83
2021/04/27 03:00:00;;;;;;;1.00;0.77;;;25.80;44.90;;;;;;4976411;28;20825;-84
2021/04/27 03:02:27;;;;;;;1.10;1.00;;;25.80;44.90;;;;;;4976756;28;20442;-83
2021/04/27 03:04:53;;;;;;;1.20;0.90;;;25.80;44.90;;;;;;4976368;28;20441;-85
2021/04/27 03:07:19;;;;;;;1.10;1.00;;;26.00;45.00;;;;;;4976339;28;20918;-84
2021/04/27 03:09:48;;;;;;;1.03;0.90;;;25.80;44.90;;;;;;4976326;28;20813;-84
2021/04/27 03:12:14;;;;;;;1.30;1.20;;;25.90;44.80;;;;;;4976046;28;20828;-85
2021/04/27 03:14:41;;;;;;;1.13;1.03;;;25.90;44.80;;;;;;4976196;28;20489;-84
2021/04/27 03:17:08;;;;;;;1.00;0.80;;;25.90;44.80;;;;;;4976393;28;20805;-85
2021/04/27 03:19:34;;;;;;;1.10;1.00;;;25.90;44.70;;;;;;4976582;28;20442;-85
2021/04/27 03:22:01;;;;;;;1.10;0.97;;;25.90;44.80;;;;;;4976071;28;20496;-85
2021/04/27 03:24:27;;;;;;;1.00;0.83;;;25.90;44.80;;;;;;4975851;28;20438;-83
2021/04/27 03:26:54;;;;;;;1.10;0.80;;;26.10;45.00;;;;;;4975969;28;20450;-85
2021/04/27 03:29:20;;;;;;;1.13;1.03;;;25.80;44.70;;;;;;4975408;28;20444;-85
2021/04/27 03:31:47;;;;;;;1.10;0.83;;;25.80;44.80;;;;;;4975851;28;20449;-85
2021/04/27 03:34:13;;;;;;;1.00;0.80;;;25.80;44.80;;;;;;4975969;28;20485;-86
2021/04/27 03:36:40;;;;;;;1.10;1.00;;;25.80;44.80;;;;;;4976338;28;20452;-84
2021/04/27 03:39:06;;;;;;;1.00;0.80;;;25.80;44.70;;;;;;4975989;28;20455;-85
2021/04/27 03:41:32;;;;;;;1.10;0.90;;;25.80;44.80;;;;;;4974554;28;20434;-85
2021/04/27 03:44:00;;;;;;;1.10;1.00;;;25.80;44.70;;;;;;4975579;28;20826;-83
2021/04/27 03:46:26;;;;;;;1.20;1.10;;;26.00;44.70;;;;;;4975798;28;20505;-86
2021/04/27 03:48:53;;;;;;;1.50;1.00;;;25.80;44.60;;;;;;4975587;28;20444;-84
2021/04/27 03:51:20;;;;;;;1.10;1.00;;;25.80;44.60;;;;;;4975632;28;20445;-84
2021/04/27 03:53:46;;;;;;;1.00;0.90;;;25.80;44.50;;;;;;4975666;28;20960;-83
2021/04/27 03:56:14;;;;;;;1.03;0.90;;;25.80;44.60;;;;;;4975568;28;20445;-86
2021/04/27 03:58:41;;;;;;;1.20;1.10;;;25.80;44.60;;;;;;4975567;28;20443;-84
2021/04/27 04:01:08;;;;;;;1.27;1.00;;;25.80;44.60;;;;;;4975126;28;20576;-83
2021/04/27 04:03:38;;;;;;;1.23;1.13;;;25.90;44.60;;;;;;4975426;28;20467;-85
2021/04/27 04:06:04;;;;;;;1.10;0.90;;;25.90;44.60;;;;;;4975834;28;20499;-86
2021/04/27 04:08:30;;;;;;;1.10;1.00;;;25.90;44.70;;;;;;4975338;28;20533;-84
2021/04/27 04:10:57;;;;;;;1.37;1.00;;;25.80;44.60;;;;;;4975212;28;20449;-84
2021/04/27 04:13:23;;;;;;;1.10;1.00;;;25.90;44.60;;;;;;4975324;28;20480;-85
2021/04/27 04:15:49;;;;;;;1.10;1.00;;;25.90;44.50;;;;;;4975109;28;20488;-86
2021/04/27 04:18:17;;;;;;;1.00;0.80;;;25.80;44.50;;;;;;4975345;28;20944;-84
2021/04/27 04:20:43;;;;;;;1.00;0.90;;;25.90;44.60;;;;;;4975020;28;20441;-83
2021/04/27 04:23:10;;;;;;;1.07;0.97;;;25.90;44.60;;;;;;4973964;28;20945;-85
2021/04/27 04:25:36;;;;;;;1.20;1.10;;;25.90;44.60;;;;;;4975011;28;20449;-84
2021/04/27 04:28:03;;;;;;;1.23;1.13;;;25.90;44.50;;;;;;4975129;28;20476;-84
2021/04/27 04:30:29;;;;;;;1.10;0.90;;;25.90;44.50;;;;;;4974919;28;20440;-84
2021/04/27 04:32:56;;;;;;;1.00;0.83;;;25.90;44.50;;;;;;4974942;28;20449;-85
2021/04/27 04:35:24;;;;;;;1.00;0.80;;;25.90;44.50;;;;;;4974934;28;20491;-84
2021/04/27 04:37:51;;;;;;;1.10;0.93;;;25.90;44.50;;;;;;4974755;28;20952;-84
2021/04/27 04:40:18;;;;;;;1.10;0.80;;;26.00;44.60;;;;;;4975044;28;20915;-85
2021/04/27 04:42:44;;;;;;;1.10;1.00;;;25.90;44.50;;;;;;4974822;28;20469;-84
2021/04/27 04:45:13;;;;;;;1.10;0.90;;;25.90;44.50;;;;;;4974718;28;20853;-85
2021/04/27 04:47:40;;;;;;;1.00;0.90;;;26.00;44.50;;;;;;4974850;28;21011;-84
2021/04/27 04:50:07;;;;;;;1.00;0.83;;;25.90;44.50;;;;;;4974879;28;20448;-83
2021/04/27 04:52:34;;;;;;;1.03;0.90;;;25.90;44.50;;;;;;4974650;28;20449;-84
2021/04/27 04:55:01;;;;;;;1.10;1.00;;;26.00;44.60;;;;;;4974416;28;20489;-84
2021/04/27 04:57:27;;;;;;;1.20;0.87;;;25.90;44.50;;;;;;4974494;28;20442;-85
2021/04/27 04:59:54;;;;;;;1.30;0.97;;;25.90;44.50;;;;;;4974721;28;20485;-86
2021/04/27 05:02:20;;;;;;;1.27;1.17;;;26.00;44.60;;;;;;4974556;28;20452;-86
2021/04/27 05:04:47;;;;;;;1.00;0.77;;;25.90;44.50;;;;;;4974387;28;20488;-84
2021/04/27 05:07:13;;;;;;;0.93;0.80;;;26.00;44.50;;;;;;4974658;28;20443;-86
2021/04/27 05:09:41;;;;;;;1.10;1.00;;;26.00;44.50;;;;;;4974588;28;20504;-83
2021/04/27 05:12:09;;;;;;;1.07;0.90;;;26.00;44.50;;;;;;4974586;28;20462;-85
2021/04/27 05:14:38;;;;;;;1.30;1.17;;;26.00;44.50;;;;;;4974632;28;20548;-87
2021/04/27 05:17:05;;;;;;;1.17;1.07;;;26.00;44.50;;;;;;4974886;28;20448;-84
2021/04/27 05:19:32;;;;;;;1.10;1.00;;;26.10;44.50;;;;;;4974452;28;20447;-84
2021/04/27 05:21:59;;;;;;;1.00;0.83;;;26.00;44.40;;;;;;4974515;28;20491;-84
2021/04/27 05:24:26;;;;;;;1.23;1.00;;;26.00;44.50;;;;;;4973337;28;20449;-84
2021/04/27 05:26:53;;;;;;;1.20;0.90;;;26.00;44.50;;;;;;4974380;28;20442;-85
2021/04/27 05:29:19;;;;;;;1.10;1.00;;;26.00;44.40;;;;;;4974458;28;20449;-85
2021/04/27 05:31:47;;;;;;;1.10;0.90;;;26.00;44.50;;;;;;4977092;28;20793;-82
2021/04/27 05:34:13;;;;;;;1.10;0.93;;;26.00;44.70;;;;;;4993228;28;20525;-82
2021/04/27 05:36:40;;;;;;;1.10;1.00;;;25.90;44.90;;;;;;4992129;28;20448;-83
2021/04/27 05:39:06;;;;;;;1.00;0.80;;;26.10;44.70;;;;;;4992901;28;20444;-83
2021/04/27 05:41:32;;;;;;;1.30;1.00;;;26.00;44.70;;;;;;4993332;28;20444;-83
2021/04/27 05:44:02;;;;;;;1.17;0.90;;;26.00;44.70;;;;;;4993455;28;20451;-84
2021/04/27 05:46:28;;;;;;;1.27;0.97;;;26.10;44.70;;;;;;4993489;28;20545;-82
2021/04/27 05:48:55;;;;;;;1.10;1.00;;;26.00;44.60;;;;;;4993489;28;20438;-83
2021/04/27 05:51:21;;;;;;;1.10;1.00;;;26.00;44.70;;;;;;4993923;28;20906;-83
2021/04/27 05:53:47;;;;;;;1.00;0.70;;;26.00;45.20;;;;;;4996337;28;20511;-82
2021/04/27 05:56:13;;;;;;;1.00;0.70;;;25.90;45.10;;;;;;4996960;28;20492;-83
2021/04/27 05:58:40;;;;;;;1.20;1.00;;;25.90;45.40;;;;;;4997447;28;20436;-83
2021/04/27 06:01:07;;;;;;;1.20;0.80;;;25.90;45.30;;;;;;4996814;28;20492;-83
2021/04/27 06:03:34;;;;;;;1.40;1.10;;;26.10;45.80;;;;;;4997124;28;20445;-83
2021/04/27 06:06:00;;;;;;;2.23;1.00;;;26.00;45.00;;;;;;4997295;28;20444;-83
2021/04/27 06:08:26;;;;;;;1.17;0.87;;;25.90;45.70;;;;;;4997164;28;20448;-83
2021/04/27 06:10:52;;;;;;;2.30;1.23;;;25.90;45.40;;;;;;4997070;28;20524;-82
2021/04/27 06:13:18;;;;;;;1.67;0.90;;;26.00;45.50;;;;;;4997231;28;20469;-82
2021/04/27 06:15:45;;;;;;;1.10;0.80;;;26.00;45.40;;;;;;4996698;28;20495;-84
2021/04/27 06:18:12;;;;;;;1.37;0.90;;;26.00;45.20;;;;;;4996676;28;20444;-83
2021/04/27 06:20:38;;;;;;;1.10;0.90;;;26.10;45.20;;;;;;4996714;28;20789;-84
2021/04/27 06:23:04;;;;;;;1.47;0.77;;;26.10;45.30;;;;;;4996498;28;20503;-83
2021/04/27 06:25:31;;;;;;;2.43;1.10;;;26.20;45.40;;;;;;4996247;28;20449;-84
2021/04/27 06:27:57;;;;;;;1.40;1.00;;;26.10;45.30;;;;;;4996580;28;20801;-83
2021/04/27 06:30:23;;;;;;;1.10;1.00;;;26.20;45.40;;;;;;4996507;28;20920;-83
2021/04/27 06:32:52;;;;;;;1.07;0.93;;;26.20;45.50;;;;;;4996442;28;20441;-84
2021/04/27 06:35:20;;;;;;;1.20;1.03;;;26.20;45.50;;;;;;4996447;28;20913;-83
2021/04/27 06:37:46;;;;;;;1.63;1.07;;;26.20;45.70;;;;;;4996264;28;20449;-84
2021/04/27 06:40:15;;;;;;;1.20;1.10;;;26.20;45.60;;;;;;4996439;28;20445;-84
2021/04/27 06:42:42;;;;;;;1.07;0.93;;;26.20;45.40;;;;;;5002754;28;20465;-82
2021/04/27 06:45:09;;;;;;;1.73;0.97;;;26.20;45.90;;;;;;4998367;28;20438;-84
2021/04/27 06:47:35;;;;;;;1.20;1.00;;;26.20;45.70;;;;;;4983330;28;20434;-89
2021/04/27 06:50:02;;;;;;;1.30;1.20;;;26.20;45.80;;;;;;4978136;28;20445;-89
2021/04/27 06:52:30;;;;;;;2.60;1.10;;;26.20;45.70;;;;;;4978365;28;20716;-86
2021/04/27 06:54:56;;;;;;;1.33;1.00;;;26.30;45.80;;;;;;4977595;28;20484;-83
2021/04/27 06:57:22;;;;;;;1.50;1.20;;;26.30;45.70;;;;;;4977528;28;20536;-88
2021/04/27 06:59:48;;;;;;;1.53;1.10;;;26.30;45.80;;;;;;4976648;28;20541;-83
2021/04/27 07:02:15;;;;;;;1.87;1.30;;;26.30;45.90;;;;;;4976608;28;20443;-88
2021/04/27 07:04:42;;;;;;;7.90;1.87;;;26.30;45.90;;;;;;4975393;28;20456;-82
2021/04/27 07:07:08;;;;;;;2.50;1.23;;;26.30;45.50;;;;;;4976294;28;20451;-83
2021/04/27 07:09:36;;;;;;;5.00;1.57;;;26.20;44.80;;;;;;4976514;28;20454;-85
2021/04/27 07:12:02;;;;;;;4.20;1.47;;;26.20;43.90;;;;;;4976425;28;20473;-82
2021/04/27 07:14:29;;;;;;;2.63;1.10;;;26.10;44.90;;;;;;4976237;28;20474;-88
2021/04/27 07:16:55;;;;;;;3.07;1.10;;;26.10;45.50;;;;;;4976243;28;20447;-84
2021/04/27 07:19:23;;;;;;;3.20;1.13;;;26.10;45.50;;;;;;4976311;28;20450;-87
2021/04/27 07:21:49;;;;;;;1.57;1.07;;;26.20;45.70;;;;;;4975926;28;20958;-83
2021/04/27 07:24:17;;;;;;;3.10;1.00;;;26.20;45.80;;;;;;4975838;28;20884;-82
2021/04/27 07:26:45;;;;;;;2.80;1.03;;;26.20;45.90;;;;;;4975742;28;20441;-82
2021/04/27 07:29:12;;;;;;;5.80;1.13;;;26.20;46.10;;;;;;4975860;28;20451;-82
2021/04/27 07:31:39;;;;;;;4.10;1.57;;;26.20;46.20;;;;;;4975808;28;20441;-83
2021/04/27 07:34:06;;;;;;;1.97;1.20;;;26.20;45.90;;;;;;4975757;28;20446;-82
2021/04/27 07:36:33;;;;;;;1.93;1.37;;;26.30;45.80;;;;;;4975741;28;20453;-82
2021/04/27 07:38:59;;;;;;;1.40;1.10;;;26.30;46.20;;;;;;4975743;28;20444;-82
2021/04/27 07:41:26;;;;;;;2.60;0.97;;;26.30;46.10;;;;;;4975509;28;20989;-82
2021/04/27 07:43:53;;;;;;;3.50;1.50;;;26.30;46.20;;;;;;4975414;28;20453;-83
2021/04/27 07:46:20;;;;;;;5.50;1.67;;;26.30;46.20;;;;;;4975671;28;20456;-82
2021/04/27 07:48:46;;;;;;;6.87;1.07;;;26.40;46.20;;;;;;4975545;28;20972;-85
2021/04/27 07:51:13;;;;;;;1.87;1.00;;;26.40;45.90;;;;;;4975524;28;20443;-82
2021/04/27 07:53:39;;;;;;;2.30;1.30;;;26.40;46.20;;;;;;4975356;28;20449;-86
2021/04/27 07:56:05;;;;;;;2.13;0.90;;;26.40;46.20;;;;;;4975230;28;21031;-83
2021/04/27 07:58:32;;;;;;;2.50;1.53;;;26.40;46.20;;;;;;4975220;28;20851;-82
2021/04/27 08:01:00;;;;;;;3.13;1.10;;;26.50;44.30;;;;;;4975055;28;20488;-83
2021/04/27 08:03:26;;;;;;;1.83;0.97;;;26.50;45.00;;;;;;4975445;28;20474;-83
2021/04/27 08:05:53;;;;;;;3.00;1.07;;;26.50;45.80;;;;;;4975076;28;20443;-83
2021/04/27 08:08:20;;;;;;;1.60;1.20;;;26.50;46.00;;;;;;4975260;28;20444;-83
2021/04/27 08:10:47;;;;;;;2.13;0.93;;;26.50;46.10;;;;;;4975286;28;20450;-82
2021/04/27 08:13:13;;;;;;;4.37;1.37;;;26.50;46.10;;;;;;4974912;28;20470;-83
2021/04/27 08:15:41;;;;;;;3.67;0.97;;;26.50;46.20;;;;;;4974682;28;20494;-87
2021/04/27 08:18:09;;;;;;;1.13;0.93;;;26.50;46.20;;;;;;4975011;28;20862;-83
2021/04/27 08:20:36;;;;;;;2.60;1.50;;;26.50;46.00;;;;;;4974911;28;20485;-84
2021/04/27 08:23:02;;;;;;;2.40;1.87;;;26.50;42.00;;;;;;4975005;28;20455;-84
2021/04/27 08:25:30;;;;;;;1.70;1.30;;;26.50;39.40;;;;;;4974989;28;20447;-84
2021/04/27 08:27:56;;;;;;;2.63;1.40;;;26.40;40.90;;;;;;4974808;28;20528;-84
2021/04/27 08:30:24;;;;;;;2.17;1.20;;;26.40;43.80;;;;;;4974879;28;20442;-84
2021/04/27 08:32:52;;;;;;;5.23;1.67;;;26.40;44.30;;;;;;4974761;28;20529;-87
2021/04/27 08:35:20;;;;;;;1.33;1.13;;;26.40;44.60;;;;;;4974729;28;20500;-84
2021/04/27 08:37:46;;;;;;;2.57;1.20;;;26.40;44.60;;;;;;4974671;28;20443;-83
2021/04/27 08:40:15;;;;;;;7.73;1.30;;;26.50;44.80;;;;;;4974838;28;20449;-83
2021/04/27 08:42:42;;;;;;;2.70;1.37;;;26.50;44.80;;;;;;4974557;28;20499;-83
2021/04/27 08:45:10;;;;;;;2.57;1.20;;;26.60;44.90;;;;;;4974645;28;20493;-83
2021/04/27 08:47:38;;;;;;;2.03;1.40;;;26.60;45.00;;;;;;4974719;28;20442;-84
2021/04/27 08:50:08;;;;;;;2.50;1.27;;;26.60;45.00;;;;;;4974702;28;20529;-83
2021/04/27 08:52:35;;;;;;;3.70;1.30;;;26.70;45.10;;;;;;4974615;28;20925;-84
2021/04/27 08:55:02;;;;;;;2.17;1.30;;;26.70;45.10;;;;;;4974352;28;20489;-83
2021/04/27 08:57:29;;;;;;;4.23;1.43;;;26.70;45.20;;;;;;4974716;28;20488;-83
2021/04/27 08:59:55;;;;;;;5.10;1.30;;;26.70;45.20;;;;;;4974540;28;20470;-83
2021/04/27 09:02:27;;;;;;;2.47;1.10;;;26.90;44.00;;;;;;4974784;28;20442;-83
2021/04/27 09:04:53;;;;;;;2.43;1.00;;;26.90;44.80;;;;;;4974621;28;20439;-84
2021/04/27 09:07:21;;;;;;;1.80;1.40;;;26.90;44.90;;;;;;4974980;28;20440;-83
2021/04/27 09:09:49;;;;;;;5.17;1.10;;;26.90;45.00;;;;;;4974751;28;20446;-86
2021/04/27 09:12:20;;;;;;;1.20;1.03;;;26.90;45.10;;;;;;4987848;28;20450;-87
2021/04/27 09:14:47;;;;;;;2.17;1.40;;;26.90;45.10;;;;;;4999320;28;20489;-85
2021/04/27 09:17:14;;;;;;;1.50;1.40;;;27.00;45.20;;;;;;4998959;28;20957;-85
2021/04/27 09:19:44;;;;;;;1.30;1.03;;;27.00;45.20;;;;;;4988990;28;20454;-88
2021/04/27 09:22:14;;;;;;;2.53;1.40;;;27.00;45.30;;;;;;4974898;28;20458;-88
2021/04/27 09:24:44;;;;;;;1.10;0.90;;;27.10;45.30;;;;;;4975080;28;20517;-84
2021/04/27 09:27:13;;;;;;;1.67;1.13;;;27.10;45.30;;;;;;4975455;28;20951;-85
2021/04/27 09:29:41;;;;;;;2.27;1.30;;;27.10;45.40;;;;;;4978119;28;20450;-85
2021/04/27 09:32:09;;;;;;;1.50;1.00;;;27.20;45.40;;;;;;4978073;28;20451;-85
2021/04/27 09:34:36;;;;;;;1.40;1.00;;;27.30;45.40;;;;;;4977966;28;20876;-85
2021/04/27 09:37:05;;;;;;;2.90;1.00;;;27.30;45.40;;;;;;4978222;28;20473;-89
2021/04/27 09:39:36;;;;;;;1.70;1.10;;;27.40;45.40;;;;;;4978325;28;20444;-85
2021/04/27 09:42:06;;;;;;;1.50;1.10;;;27.40;45.40;;;;;;4977999;28;20474;-89
2021/04/27 09:44:38;;;;;;;1.40;1.10;;;27.40;45.30;;;;;;4978342;28;20439;-86
2021/04/27 09:47:22;;;;;;;1.10;1.00;;;27.50;45.30;;;;;;4978012;28;20971;-85
2021/04/27 09:49:56;;;;;;;1.70;1.17;;;27.50;45.20;;;;;;4978103;28;20455;-88
2021/04/27 09:52:23;;;;;;;2.07;0.83;;;27.50;45.80;;;;;;4978271;28;20440;-91
2021/04/27 09:55:02;;;;;;;1.93;1.30;;;27.40;45.40;;;;;;4977810;28;20483;-86
2021/04/27 09:57:31;;;;;;;2.47;1.40;;;27.50;43.50;;;;;;4977863;28;20503;-85
2021/04/27 10:00:22;;;;;;;2.60;1.20;;;27.50;45.00;;;;;;4977928;28;20483;-90
2021/04/27 10:02:49;;;;;;;1.20;1.10;;;27.50;45.20;;;;;;4977605;28;20835;-85
2021/04/27 10:05:15;;;;;;;1.33;1.23;;;27.50;45.20;;;;;;4977759;28;20455;-86
2021/04/27 10:07:42;;;;;;;1.23;1.00;;;27.70;45.40;;;;;;4977785;28;20533;-85
2021/04/27 10:10:11;;;;;;;5.13;1.47;;;27.60;44.10;;;;;;4977584;28;20820;-85
2021/04/27 10:12:38;;;;;;;1.50;1.03;;;27.60;44.00;;;;;;4977457;28;20978;-84
2021/04/27 10:15:07;;;;;;;1.77;1.20;;;27.50;43.80;;;;;;4977248;28;20493;-83
2021/04/27 10:17:34;;;;;;;1.40;1.00;;;27.50;44.40;;;;;;4977428;28;20450;-90
2021/04/27 10:20:01;;;;;;;2.03;1.10;;;27.40;44.80;;;;;;4977388;28;20836;-91
2021/04/27 10:22:28;;;;;;;1.23;1.13;;;27.40;45.00;;;;;;4977349;28;20549;-89
2021/04/27 10:24:54;;;;;;;1.33;1.03;;;27.40;45.20;;;;;;4977102;28;20482;-84
2021/04/27 10:27:24;;;;;;;3.73;1.50;;;27.40;45.20;;;;;;4977204;28;20452;-84
2021/04/27 10:29:56;;;;;;;1.50;1.20;;;27.40;45.10;;;;;;4977490;28;20447;-83
2021/04/27 10:32:25;;;;;;;6.03;1.30;;;27.40;45.40;;;;;;4977086;28;20448;-90
2021/04/27 10:35:10;;;;;;;3.13;1.40;;;27.40;45.40;;;;;;4976910;28;20484;-83
2021/04/27 10:38:02;;;;;;;2.03;1.30;;;27.50;45.80;;;;;;4976964;28;20448;-87
2021/04/27 10:40:46;;;;;;;1.30;1.00;;;27.50;46.10;;;;;;4967674;28;20460;-84
2021/04/27 10:43:40;;;;;;;1.87;1.33;;;27.50;46.20;;;;;;4976933;28;20470;-84
2021/04/27 10:46:09;;;;;;;1.77;1.20;;;27.60;46.20;;;;;;4963645;28;20454;-85
2021/04/27 10:48:38;;;;;;;1.80;0.97;;;27.60;46.30;;;;;;4976958;28;20436;-88
2021/04/27 10:51:37;;;;;;;2.23;1.10;;;27.60;46.30;;;;;;4976587;28;20441;-84
2021/04/27 10:54:06;;;;;;;2.07;1.23;;;27.60;46.30;;;;;;4976853;28;20493;-91
2021/04/27 10:56:37;;;;;;;2.07;1.20;;;27.60;46.10;;;;;;4976502;28;20496;-91
2021/04/27 10:59:08;;;;;;;4.07;1.40;;;27.70;46.20;;;;;;4976636;28;20449;-84
2021/04/27 11:01:36;;;;;;;3.53;1.47;;;27.70;46.30;;;;;;4976465;28;20560;-85
2021/04/27 11:04:04;;;;;;;2.70;1.37;;;27.70;44.40;;;;;;4976153;28;20452;-86
2021/04/27 11:06:31;;;;;;;2.40;1.40;;;27.80;43.80;;;;;;4976452;28;20763;-85
2021/04/27 11:08:59;;;;;;;2.33;1.30;;;27.70;41.70;;;;;;4976579;28;20449;-86
2021/04/27 11:11:28;;;;;;;1.77;1.43;;;27.70;41.30;;;;;;4976588;28;20500;-85
2021/04/27 11:14:14;;;;;;;2.27;1.23;;;27.60;40.20;;;;;;4976591;28;20448;-85
2021/04/27 11:16:41;;;;;;;2.00;1.73;;;27.50;39.90;;;;;;4976611;28;20502;-85
2021/04/27 11:19:32;;;;;;;1.83;1.30;;;27.50;39.40;;;;;;4976115;28;20444;-85
2021/04/27 11:22:18;;;;;;;1.60;1.40;;;27.40;41.00;;;;;;4976016;28;20441;-85
2021/04/27 11:24:45;;;;;;;1.70;1.10;;;27.40;42.00;;;;;;4976577;28;20437;-89
2021/04/27 11:27:23;;;;;;;1.27;1.00;;;27.40;42.50;;;;;;4976257;28;20853;-88
2021/04/27 11:29:55;;;;;;;1.10;0.90;;;27.50;42.70;;;;;;4976819;28;20469;-87
2021/04/27 11:32:21;;;;;;;4.03;1.30;;;27.50;42.60;;;;;;4976252;28;20448;-89
2021/04/27 11:35:09;;;;;;;3.63;1.83;;;27.50;43.10;;;;;;4975025;28;20480;-85
2021/04/27 11:37:38;;;;;;;1.40;1.20;;;27.50;42.30;;;;;;4975994;28;20500;-85
2021/04/27 11:40:29;;;;;;;1.40;1.30;;;27.50;42.10;;;;;;4975971;28;20473;-89
2021/04/27 11:42:59;;;;;;;1.80;1.30;;;27.50;42.30;;;;;;4961252;28;20471;-85
2021/04/27 11:45:27;;;;;;;4.60;1.30;;;27.40;42.50;;;;;;4975347;28;20444;-88
2021/04/27 11:47:54;;;;;;;1.30;1.07;;;27.40;42.80;;;;;;4974884;28;20808;-85
2021/04/27 11:50:22;;;;;;;1.77;1.30;;;27.50;43.10;;;;;;4973979;28;20443;-86
2021/04/27 11:52:52;;;;;;;2.13;0.90;;;27.50;42.50;;;;;;4975377;28;20499;-86
2021/04/27 11:55:28;;;;;;;2.33;1.37;;;27.50;43.10;;;;;;4975191;28;20493;-85
2021/04/27 11:57:57;;;;;;;2.47;1.10;;;27.60;42.40;;;;;;4975458;28;20451;-88
2021/04/27 12:00:34;;;;;;;1.30;0.97;;;27.50;42.40;;;;;;4975156;28;20884;-86
2021/04/27 12:03:17;;;;;;;1.40;1.00;;;27.50;42.50;;;;;;4975124;28;20454;-86
2021/04/27 12:05:44;;;;;;;3.27;1.57;;;27.40;42.50;;;;;;4975057;28;20452;-86
2021/04/27 12:08:19;;;;;;;1.77;0.80;;;27.40;43.40;;;;;;4974972;28;20449;-86
2021/04/27 12:10:47;;;;;;;1.37;1.10;;;27.40;42.80;;;;;;4974909;28;20445;-84
2021/04/27 12:13:20;;;;;;;1.20;1.10;;;27.30;42.80;;;;;;4974922;28;20956;-88
2021/04/27 12:16:05;;;;;;;2.07;1.40;;;27.30;42.60;;;;;;4974962;28;20499;-86
2021/04/27 12:18:32;;;;;;;3.47;1.10;;;27.30;42.70;;;;;;4974826;28;20444;-86
2021/04/27 12:20:59;;;;;;;1.60;1.20;;;27.20;42.80;;;;;;4974765;28;20447;-85
2021/04/27 12:23:25;;;;;;;2.47;1.17;;;27.20;42.80;;;;;;4974816;28;20448;-85
2021/04/27 12:25:57;;;;;;;1.30;1.00;;;27.20;42.60;;;;;;4974758;28;20770;-85
2021/04/27 12:28:23;;;;;;;2.30;1.37;;;27.20;42.60;;;;;;4974832;28;20443;-87
2021/04/27 12:30:50;;;;;;;3.77;0.90;;;27.20;42.70;;;;;;4974760;28;20505;-86
2021/04/27 12:33:22;;;;;;;1.30;0.90;;;27.10;42.60;;;;;;4974662;28;20446;-85
2021/04/27 12:35:52;;;;;;;3.53;1.10;;;27.20;42.70;;;;;;4974600;28;20588;-85
2021/04/27 12:38:19;;;;;;;4.50;1.47;;;27.20;42.80;;;;;;4974673;28;20463;-85
2021/04/27 12:40:52;;;;;;;1.40;1.00;;;27.10;42.80;;;;;;4974483;28;20451;-86
2021/04/27 12:43:27;;;;;;;2.60;1.00;;;27.10;42.80;;;;;;4974548;28;20462;-85
2021/04/27 12:45:58;;;;;;;3.43;1.20;;;27.10;42.90;;;;;;4974547;28;20442;-86
2021/04/27 12:48:28;;;;;;;1.13;0.97;;;27.10;42.90;;;;;;4974582;28;20957;-85
2021/04/27 12:51:01;;;;;;;3.20;1.20;;;27.10;43.00;;;;;;4974527;28;20522;-86
2021/04/27 12:53:36;;;;;;;2.70;0.83;;;27.10;43.10;;;;;;4974355;28;20460;-85